createdAt,value
2018-01-20T00:02:19.900Z,3.30
2018-01-20T00:04:45.854Z,3.30
2018-01-20T00:07:12.601Z,3.60
2018-01-20T00:09:39.260Z,3.70
2018-01-20T00:12:05.228Z,3.70
2018-01-20T00:14:31.342Z,3.80
2018-01-20T00:16:57.311Z,3.90
2018-01-20T00:19:23.255Z,4.00
2018-01-20T00:21:49.371Z,4.10
2018-01-20T00:24:15.336Z,4.20
2018-01-20T00:26:41.293Z,4.20
2018-01-20T00:29:08.048Z,4.30
2018-01-20T00:31:33.997Z,4.30
2018-01-20T00:33:59.941Z,4.30
2018-01-20T00:36:26.020Z,4.30
2018-01-20T00:38:51.952Z,4.40
2018-01-20T00:41:17.928Z,4.30
2018-01-20T00:43:43.873Z,4.40
2018-01-20T00:46:09.815Z,4.30
2018-01-20T00:48:35.815Z,4.40
2018-01-20T00:51:01.762Z,4.30
2018-01-20T00:53:27.701Z,4.30
2018-01-20T00:55:53.769Z,4.20
2018-01-20T00:58:20.447Z,4.20
2018-01-20T01:00:46.436Z,4.20
2018-01-20T01:03:13.127Z,4.10
2018-01-20T01:05:39.088Z,4.10
2018-01-20T01:08:05.775Z,4.10
2018-01-20T01:10:31.871Z,4.10
2018-01-20T01:12:58.551Z,4.10
2018-01-20T01:15:24.487Z,4.10
2018-01-20T01:17:50.481Z,4.10
2018-01-20T01:20:17.159Z,4.00
2018-01-20T01:22:43.083Z,4.00
2018-01-20T01:25:09.055Z,4.00
2018-01-20T01:27:34.989Z,3.90
2018-01-20T01:30:01.060Z,3.90
2018-01-20T01:32:27.133Z,3.80
2018-01-20T01:34:53.842Z,3.80
2018-01-20T01:37:20.528Z,3.70
2018-01-20T01:39:46.499Z,3.70
2018-01-20T01:42:12.432Z,3.60
2018-01-20T01:44:38.500Z,3.60
2018-01-20T01:47:04.441Z,3.60
2018-01-20T01:49:30.419Z,3.60
2018-01-20T01:51:56.344Z,3.50
2018-01-20T01:54:22.272Z,3.50
2018-01-20T01:56:48.252Z,3.50
2018-01-20T01:59:14.940Z,3.50
2018-01-20T02:01:41.034Z,3.50
2018-01-20T02:04:06.962Z,3.60
2018-01-20T02:06:32.979Z,3.60
2018-01-20T02:08:58.905Z,3.60
2018-01-20T02:11:24.884Z,3.60
2018-01-20T02:13:50.848Z,3.60
2018-01-20T02:16:16.795Z,3.60
2018-01-20T02:18:42.735Z,3.50
2018-01-20T02:21:08.815Z,3.40
2018-01-20T02:23:34.742Z,3.30
2018-01-20T02:26:00.726Z,3.30
2018-01-20T02:28:27.547Z,3.30
2018-01-20T02:30:53.518Z,3.20
2018-01-20T02:33:19.471Z,3.20
2018-01-20T02:35:45.545Z,3.20
2018-01-20T02:38:12.220Z,3.20
2018-01-20T02:40:38.183Z,3.20
2018-01-20T02:43:04.140Z,3.20
2018-01-20T02:45:30.084Z,3.20
2018-01-20T02:47:56.055Z,3.30
2018-01-20T02:50:21.988Z,3.40
2018-01-20T02:52:48.663Z,3.50
2018-01-20T02:55:14.756Z,3.50
2018-01-20T02:57:41.437Z,3.50
2018-01-20T03:00:07.397Z,3.50
2018-01-20T03:02:33.333Z,3.50
2018-01-20T03:05:00.044Z,3.50
2018-01-20T03:07:25.979Z,3.40
2018-01-20T03:09:52.070Z,3.40
2018-01-20T03:12:18.038Z,3.30
2018-01-20T03:14:44.714Z,3.20
2018-01-20T03:17:10.640Z,3.20
2018-01-20T03:19:36.608Z,3.00
2018-01-20T03:22:02.541Z,2.90
2018-01-20T03:24:29.266Z,2.80
2018-01-20T03:26:55.200Z,2.80
2018-01-20T03:29:22.027Z,2.80
2018-01-20T03:31:48.104Z,2.70
2018-01-20T03:34:14.042Z,2.80
2018-01-20T03:36:40.136Z,2.80
2018-01-20T03:39:06.078Z,2.90
2018-01-20T03:41:32.015Z,3.00
2018-01-20T03:43:57.983Z,3.10
2018-01-20T03:46:24.668Z,3.30
2018-01-20T03:48:50.646Z,3.20
2018-01-20T03:51:17.332Z,3.30
2018-01-20T03:53:43.272Z,3.30
2018-01-20T03:56:09.363Z,3.30
2018-01-20T03:58:35.322Z,3.30
2018-01-20T04:01:01.291Z,3.30
2018-01-20T04:03:27.214Z,3.20
2018-01-20T04:05:53.164Z,3.20
2018-01-20T04:08:19.141Z,3.30
2018-01-20T04:10:45.811Z,3.20
2018-01-20T04:13:11.739Z,3.20
2018-01-20T04:15:38.577Z,3.20
2018-01-20T04:18:04.503Z,3.20
2018-01-20T04:20:30.486Z,3.10
2018-01-20T04:22:57.201Z,3.10
2018-01-20T04:25:23.219Z,3.10
2018-01-20T04:27:49.192Z,3.10
2018-01-20T04:30:15.172Z,3.00
2018-01-20T04:32:41.155Z,3.10
2018-01-20T04:35:07.090Z,3.00
2018-01-20T04:37:33.033Z,2.90
2018-01-20T04:39:59.004Z,2.80
2018-01-20T04:42:24.943Z,2.80
2018-01-20T04:44:51.054Z,2.70
2018-01-20T04:47:16.999Z,2.70
2018-01-20T04:49:42.963Z,2.60
2018-01-20T04:52:09.651Z,2.60
2018-01-20T04:54:35.612Z,2.60
2018-01-20T04:57:01.568Z,2.60
2018-01-20T04:59:27.508Z,2.60
2018-01-20T05:01:53.571Z,2.60
2018-01-20T05:04:19.542Z,2.70
2018-01-20T05:06:45.499Z,2.80
2018-01-20T05:09:11.428Z,2.90
2018-01-20T05:11:37.404Z,3.10
2018-01-20T05:14:03.339Z,3.20
2018-01-20T05:16:29.436Z,3.20
2018-01-20T05:18:56.106Z,2.90
2018-01-20T05:21:22.202Z,2.90
2018-01-20T05:23:48.943Z,2.80
2018-01-20T05:26:15.643Z,2.80
2018-01-20T05:28:41.586Z,2.70
2018-01-20T05:31:08.303Z,2.70
2018-01-20T05:33:34.382Z,2.70
2018-01-20T05:36:00.308Z,2.70
2018-01-20T05:38:26.255Z,2.80
2018-01-20T05:40:52.211Z,2.90
2018-01-20T05:43:18.160Z,2.90
2018-01-20T05:45:44.188Z,3.00
2018-01-20T05:48:10.124Z,3.00
2018-01-20T05:50:36.074Z,3.10
2018-01-20T05:53:02.072Z,3.10
2018-01-20T05:55:28.019Z,3.20
2018-01-20T05:57:54.007Z,3.10
2018-01-20T06:00:19.959Z,3.10
2018-01-20T06:02:46.071Z,3.10
2018-01-20T06:05:12.744Z,3.10
2018-01-20T06:07:38.695Z,3.10
2018-01-20T06:10:04.661Z,3.10
2018-01-20T06:12:30.625Z,3.10
2018-01-20T06:14:56.616Z,3.30
2018-01-20T06:17:22.544Z,3.30
2018-01-20T06:19:48.519Z,3.40
2018-01-20T06:22:14.593Z,3.50
2018-01-20T06:24:40.542Z,3.50
2018-01-20T06:27:06.535Z,3.50
2018-01-20T06:29:32.607Z,3.50
2018-01-20T06:31:58.535Z,3.50
2018-01-20T06:34:25.392Z,3.50
2018-01-20T06:36:51.339Z,3.50
2018-01-20T06:39:17.287Z,3.50
2018-01-20T06:41:44.044Z,3.60
2018-01-20T06:44:10.729Z,3.60
2018-01-20T06:46:36.671Z,3.60
2018-01-20T06:49:02.641Z,3.70
2018-01-20T06:51:28.575Z,3.80
2018-01-20T06:53:54.549Z,3.80
2018-01-20T06:56:20.469Z,3.80
2018-01-20T06:58:46.431Z,3.80
2018-01-20T07:01:12.529Z,3.80
2018-01-20T07:03:39.231Z,3.80
2018-01-20T07:06:05.235Z,3.80
2018-01-20T07:08:31.229Z,3.80
2018-01-20T07:10:57.195Z,3.80
2018-01-20T07:13:23.159Z,3.80
2018-01-20T07:15:49.848Z,3.60
2018-01-20T07:18:15.852Z,3.60
2018-01-20T07:20:49.660Z,3.60
2018-01-20T07:23:23.660Z,3.70
2018-01-20T07:25:55.140Z,3.60
2018-01-20T07:28:21.297Z,3.60
2018-01-20T07:30:47.265Z,3.60
2018-01-20T07:33:13.248Z,3.60
2018-01-20T07:35:39.940Z,3.70
2018-01-20T07:38:05.888Z,3.70
2018-01-20T07:40:32.047Z,3.70
2018-01-20T07:42:58.792Z,3.80
2018-01-20T07:45:25.544Z,3.80
2018-01-20T07:47:51.494Z,3.80
2018-01-20T07:50:17.599Z,3.90
2018-01-20T07:52:43.548Z,3.90
2018-01-20T07:55:09.496Z,3.90
2018-01-20T07:57:42.955Z,3.90
2018-01-20T08:00:16.303Z,3.90
2018-01-20T08:02:43.023Z,3.90
2018-01-20T08:05:08.966Z,3.90
2018-01-20T08:07:35.651Z,4.00
2018-01-20T08:10:01.686Z,3.90
2018-01-20T08:12:27.632Z,4.00
2018-01-20T08:14:53.559Z,4.00
2018-01-20T08:17:19.538Z,4.00
2018-01-20T08:19:45.538Z,4.00
2018-01-20T08:22:11.624Z,3.90
2018-01-20T08:24:37.727Z,3.90
2018-01-20T08:27:03.683Z,3.90
2018-01-20T08:29:30.484Z,3.80
2018-01-20T08:31:56.447Z,3.80
2018-01-20T08:34:22.431Z,3.80
2018-01-20T08:36:48.407Z,3.90
2018-01-20T08:39:15.164Z,3.90
2018-01-20T08:41:41.320Z,3.90
2018-01-20T08:44:07.298Z,3.90
2018-01-20T08:46:33.261Z,3.90
2018-01-20T08:48:59.207Z,4.00
2018-01-20T08:51:25.205Z,4.00
2018-01-20T08:53:51.184Z,4.00
2018-01-20T08:56:17.140Z,4.00
2018-01-20T08:58:43.267Z,4.10
2018-01-20T09:01:09.235Z,4.10
2018-01-20T09:03:35.177Z,4.10
2018-01-20T09:06:01.881Z,4.10
2018-01-20T09:08:27.864Z,4.10
2018-01-20T09:10:53.805Z,4.10
2018-01-20T09:13:19.764Z,4.00
2018-01-20T09:15:46.528Z,3.90
2018-01-20T09:18:12.489Z,3.90
2018-01-20T09:20:38.531Z,4.00
2018-01-20T09:23:04.530Z,4.00
2018-01-20T09:25:30.490Z,4.00
2018-01-20T09:27:56.462Z,4.00
2018-01-20T09:30:22.395Z,4.10
2018-01-20T09:32:48.396Z,4.10
2018-01-20T09:35:14.343Z,4.00
2018-01-20T09:37:40.431Z,4.10
2018-01-20T09:40:06.407Z,4.10
2018-01-20T09:42:32.361Z,4.10
2018-01-20T09:44:59.064Z,4.20
2018-01-20T09:47:25.016Z,4.20
2018-01-20T09:49:51.767Z,4.20
2018-01-20T09:52:18.453Z,4.20
2018-01-20T09:54:44.405Z,4.20
2018-01-20T09:57:10.559Z,4.20
2018-01-20T09:59:36.528Z,4.20
2018-01-20T10:02:02.519Z,4.20
2018-01-20T10:04:28.467Z,4.20
2018-01-20T10:06:54.416Z,4.30
2018-01-20T10:09:20.482Z,4.30
2018-01-20T10:11:46.455Z,4.30
2018-01-20T10:14:12.593Z,4.30
2018-01-20T10:16:38.554Z,4.30
2018-01-20T10:19:04.536Z,4.30
2018-01-20T10:21:30.631Z,4.30
2018-01-20T10:23:56.601Z,4.30
2018-01-20T10:26:22.616Z,4.40
2018-01-20T10:28:48.647Z,4.40
2018-01-20T10:31:15.521Z,4.50
2018-01-20T10:33:41.497Z,4.50
2018-01-20T10:36:07.440Z,4.50
2018-01-20T10:38:34.173Z,4.50
2018-01-20T10:41:00.864Z,4.40
2018-01-20T10:43:26.834Z,4.40
2018-01-20T10:45:53.563Z,4.60
2018-01-20T10:48:19.494Z,4.60
2018-01-20T10:50:46.334Z,4.50
2018-01-20T10:53:13.019Z,4.60
2018-01-20T10:55:39.024Z,4.60
2018-01-20T10:58:04.993Z,4.70
2018-01-20T11:00:30.928Z,4.60
2018-01-20T11:02:56.887Z,4.70
2018-01-20T11:05:22.824Z,4.80
2018-01-20T11:07:48.943Z,4.80
2018-01-20T11:10:14.892Z,4.90
2018-01-20T11:12:40.855Z,4.90
2018-01-20T11:15:07.591Z,4.80
2018-01-20T11:17:34.275Z,4.80
2018-01-20T11:20:01.145Z,4.80
2018-01-20T11:22:27.294Z,4.80
2018-01-20T11:24:54.008Z,4.90
2018-01-20T11:27:20.120Z,4.80
2018-01-20T11:29:46.077Z,4.80
2018-01-20T11:32:12.043Z,4.80
2018-01-20T11:34:38.000Z,4.90
2018-01-20T11:37:03.994Z,4.90
2018-01-20T11:39:29.964Z,4.90
2018-01-20T11:41:56.115Z,5.00
2018-01-20T11:44:22.832Z,5.10
2018-01-20T11:46:48.830Z,5.10
2018-01-20T11:49:14.804Z,5.10
2018-01-20T11:51:40.770Z,5.10
2018-01-20T11:54:06.700Z,5.00
2018-01-20T11:56:32.730Z,5.10
2018-01-20T11:58:58.719Z,5.20
2018-01-20T12:01:24.812Z,5.20
2018-01-20T12:03:51.546Z,5.20
2018-01-20T12:06:17.500Z,5.20
2018-01-20T12:08:43.498Z,5.20
2018-01-20T12:11:09.459Z,5.30
2018-01-20T12:13:35.556Z,5.30
2018-01-20T12:16:01.513Z,5.40
2018-01-20T12:18:27.500Z,5.40
2018-01-20T12:20:53.624Z,5.50
2018-01-20T12:23:19.569Z,5.50
2018-01-20T12:25:45.592Z,5.40
2018-01-20T12:28:11.594Z,5.40
2018-01-20T12:30:37.547Z,5.50
2018-01-20T12:33:03.647Z,5.40
2018-01-20T12:35:29.695Z,5.40
2018-01-20T12:37:55.661Z,5.40
2018-01-20T12:40:22.377Z,5.40
2018-01-20T12:42:48.335Z,5.40
2018-01-20T12:45:14.297Z,5.40
2018-01-20T12:47:40.340Z,5.30
2018-01-20T12:50:06.324Z,5.30
2018-01-20T12:52:32.303Z,5.40
2018-01-20T12:54:58.324Z,5.30
2018-01-20T12:57:24.283Z,5.30
2018-01-20T12:59:51.172Z,5.30
2018-01-20T13:02:17.200Z,5.30
2018-01-20T13:04:43.281Z,5.30
2018-01-20T13:07:09.247Z,5.30
2018-01-20T13:09:35.979Z,5.20
2018-01-20T13:12:02.024Z,5.20
2018-01-20T13:14:31.990Z,5.20
2018-01-20T13:16:57.968Z,5.20
2018-01-20T13:19:24.685Z,5.20
2018-01-20T13:21:50.791Z,5.20
2018-01-20T13:24:17.684Z,5.10
2018-01-20T13:26:44.414Z,5.20
2018-01-20T13:29:11.198Z,5.20
2018-01-20T13:31:37.204Z,5.20
2018-01-20T13:34:03.168Z,5.10
2018-01-20T13:36:29.291Z,5.00
2018-01-20T13:38:55.260Z,5.00
2018-01-20T13:41:21.994Z,4.90
2018-01-20T13:43:48.000Z,4.90
2018-01-20T13:46:14.769Z,4.80
2018-01-20T13:48:40.736Z,4.80
2018-01-20T13:51:06.731Z,4.90
2018-01-20T13:53:32.825Z,4.90
2018-01-20T13:55:59.533Z,4.80
2018-01-20T13:58:25.530Z,4.80
2018-01-20T14:00:51.491Z,4.80
2018-01-20T14:03:17.617Z,4.80
2018-01-20T14:05:43.625Z,4.80
2018-01-20T14:08:09.577Z,4.90
2018-01-20T14:10:36.323Z,4.90
2018-01-20T14:13:02.624Z,4.90
2018-01-20T14:15:28.604Z,4.90
2018-01-20T14:17:54.576Z,4.90
2018-01-20T14:20:20.545Z,4.90
2018-01-20T14:22:46.660Z,4.90
2018-01-20T14:25:12.677Z,5.00
2018-01-20T14:27:39.405Z,4.90
2018-01-20T14:30:05.534Z,4.90
2018-01-20T14:32:31.519Z,4.90
2018-01-20T14:34:57.520Z,4.90
2018-01-20T14:37:23.533Z,4.90
2018-01-20T14:39:49.502Z,4.90
2018-01-20T14:42:15.537Z,4.90
2018-01-20T14:44:41.546Z,4.80
2018-01-20T14:47:07.521Z,4.80
2018-01-20T14:49:33.520Z,4.80
2018-01-20T14:51:59.472Z,4.70
2018-01-20T14:54:25.488Z,4.70
2018-01-20T14:56:51.688Z,4.70
2018-01-20T14:59:17.637Z,4.70
2018-01-20T15:01:43.755Z,4.60
2018-01-20T15:04:09.735Z,4.70
2018-01-20T15:06:35.754Z,4.60
2018-01-20T15:09:01.711Z,4.60
2018-01-20T15:11:28.425Z,4.60
2018-01-20T15:13:54.384Z,4.60
2018-01-20T15:16:20.334Z,4.60
2018-01-20T15:18:46.460Z,4.60
2018-01-20T15:21:12.555Z,4.50
2018-01-20T15:23:38.536Z,4.50
2018-01-20T15:26:04.528Z,4.50
2018-01-20T15:28:30.488Z,4.50
2018-01-20T15:30:56.474Z,4.50
2018-01-20T15:33:22.489Z,4.50
2018-01-20T15:35:48.457Z,4.50
2018-01-20T15:38:14.551Z,4.60
2018-01-20T15:40:40.516Z,4.60
2018-01-20T15:43:07.284Z,4.70
2018-01-20T15:45:33.225Z,4.70
2018-01-20T15:47:59.235Z,4.70
2018-01-20T15:50:25.212Z,4.70
2018-01-20T15:52:51.163Z,4.60
2018-01-20T15:55:17.308Z,4.60
2018-01-20T15:57:43.268Z,4.50
2018-01-20T16:00:09.215Z,4.40
2018-01-20T16:02:35.932Z,4.30
2018-01-20T16:05:01.896Z,4.30
2018-01-20T16:07:27.874Z,4.30
2018-01-20T16:09:53.880Z,4.30
2018-01-20T16:12:20.028Z,4.30
2018-01-20T16:14:46.003Z,4.30
2018-01-20T16:17:12.022Z,4.40
2018-01-20T16:19:38.021Z,4.40
2018-01-20T16:22:05.844Z,4.60
2018-01-20T16:24:31.862Z,4.50
2018-01-20T16:26:57.859Z,4.60
2018-01-20T16:29:24.020Z,4.60
2018-01-20T16:31:50.115Z,4.50
2018-01-20T16:34:17.557Z,4.60
2018-01-20T16:36:45.797Z,4.50
2018-01-20T16:39:17.909Z,4.50
2018-01-20T16:41:46.842Z,4.50
2018-01-20T16:44:14.379Z,4.40
2018-01-20T16:46:45.229Z,4.40
2018-01-20T16:49:13.677Z,4.40
2018-01-20T16:51:43.571Z,4.30
2018-01-20T16:54:12.567Z,4.10
2018-01-20T16:56:41.881Z,4.10
2018-01-20T16:59:12.274Z,4.10
2018-01-20T17:01:44.643Z,4.00
2018-01-20T17:04:17.013Z,4.00
2018-01-20T17:06:44.565Z,3.90
2018-01-20T17:09:14.514Z,3.80
2018-01-20T17:11:44.831Z,3.80
2018-01-20T17:14:14.462Z,3.80
2018-01-20T17:16:46.309Z,3.80
2018-01-20T17:19:17.251Z,3.80
2018-01-20T17:21:43.660Z,3.80
2018-01-20T17:24:10.389Z,3.80
2018-01-20T17:26:39.983Z,3.80
2018-01-20T17:29:10.800Z,3.90
2018-01-20T17:31:41.897Z,3.90
2018-01-20T17:34:07.913Z,3.90
2018-01-20T17:36:34.637Z,3.90
2018-01-20T17:41:36.753Z,3.80
2018-01-20T17:44:04.431Z,3.80
2018-01-20T17:46:30.496Z,3.80
2018-01-20T17:48:57.322Z,3.80
2018-01-20T17:51:24.219Z,3.60
2018-01-20T17:53:52.729Z,3.60
2018-01-20T17:56:18.871Z,3.60
2018-01-20T17:58:44.912Z,3.60
2018-01-20T18:01:11.522Z,3.60
2018-01-20T18:03:37.769Z,3.70
2018-01-20T18:06:05.712Z,3.70
2018-01-20T18:08:31.753Z,3.70
2018-01-20T18:10:57.763Z,3.80
2018-01-20T18:13:23.722Z,3.90
2018-01-20T18:15:50.450Z,3.90
2018-01-20T18:18:16.401Z,3.90
2018-01-20T18:20:43.231Z,4.00
2018-01-20T18:23:09.204Z,4.00
2018-01-20T18:25:35.198Z,4.00
2018-01-20T18:28:01.190Z,3.90
2018-01-20T18:30:27.298Z,3.90
2018-01-20T18:32:53.296Z,3.80
2018-01-20T18:35:19.270Z,3.80
2018-01-20T18:37:45.209Z,3.90
2018-01-20T18:40:11.267Z,4.00
2018-01-20T18:42:37.232Z,4.00
2018-01-20T18:45:03.197Z,4.00
2018-01-20T18:47:29.163Z,4.10
2018-01-20T18:49:55.116Z,4.20
2018-01-20T18:52:21.872Z,4.20
2018-01-20T18:54:47.797Z,4.20
2018-01-20T18:57:13.757Z,4.20
2018-01-20T18:59:39.875Z,4.30
2018-01-20T19:02:05.818Z,4.20
2018-01-20T19:04:31.875Z,4.10
2018-01-20T19:06:58.559Z,4.20
2018-01-20T19:09:24.507Z,4.20
2018-01-20T19:11:50.514Z,4.10
2018-01-20T19:14:16.463Z,4.10
2018-01-20T19:16:43.210Z,4.20
2018-01-20T19:19:09.972Z,4.20
2018-01-20T19:21:36.102Z,4.20
2018-01-20T19:24:02.093Z,4.30
2018-01-20T19:26:28.813Z,4.30
2018-01-20T19:28:54.960Z,4.30
2018-01-20T19:31:21.660Z,4.30
2018-01-20T19:33:47.648Z,4.40
2018-01-20T19:36:13.608Z,4.40
2018-01-20T19:38:39.608Z,4.40
2018-01-20T19:41:05.570Z,4.40
2018-01-20T19:43:31.530Z,4.50
2018-01-20T19:45:57.563Z,4.50
2018-01-20T19:48:23.530Z,4.50
2018-01-20T19:50:49.501Z,4.60
2018-01-20T19:53:15.453Z,4.60
2018-01-20T19:55:41.425Z,4.60
2018-01-20T19:58:08.122Z,4.70
2018-01-20T20:00:34.082Z,4.70
2018-01-20T20:03:00.841Z,4.60
2018-01-20T20:05:26.792Z,4.60
2018-01-20T20:07:52.780Z,4.70
2018-01-20T20:10:18.736Z,4.70
2018-01-20T20:12:44.736Z,4.70
2018-01-20T20:15:10.705Z,4.70
2018-01-20T20:17:36.670Z,4.70
2018-01-20T20:20:03.591Z,4.70
2018-01-20T20:22:29.794Z,4.60
2018-01-20T20:24:55.757Z,4.60
2018-01-20T20:27:22.490Z,4.70
2018-01-20T20:29:49.187Z,4.80
2018-01-20T20:32:15.132Z,4.70
2018-01-20T20:34:41.124Z,4.70
2018-01-20T20:37:07.110Z,4.70
2018-01-20T20:39:33.929Z,4.70
2018-01-20T20:41:59.866Z,4.70
2018-01-20T20:44:25.868Z,4.70
2018-01-20T20:46:51.841Z,4.60
2018-01-20T20:49:17.832Z,4.60
2018-01-20T20:51:44.544Z,4.70
2018-01-20T20:54:10.684Z,4.60
2018-01-20T20:56:36.828Z,4.70
2018-01-20T20:59:03.520Z,4.70
2018-01-20T21:01:30.376Z,4.70
2018-01-20T21:03:56.308Z,4.70
2018-01-20T21:06:22.252Z,4.80
2018-01-20T21:08:48.227Z,4.80
2018-01-20T21:11:14.213Z,4.80
2018-01-20T21:13:40.247Z,4.60
2018-01-20T21:16:06.181Z,4.60
2018-01-20T21:18:32.156Z,4.60
2018-01-20T21:20:59.041Z,4.50
2018-01-20T21:23:25.137Z,4.50
2018-01-20T21:25:51.107Z,4.50
2018-01-20T21:28:17.069Z,4.50
2018-01-20T21:30:43.820Z,4.50
2018-01-20T21:33:10.547Z,4.50
2018-01-20T21:35:37.236Z,4.40
2018-01-20T21:38:03.334Z,4.40
2018-01-20T21:40:29.298Z,4.30
2018-01-20T21:42:55.278Z,4.20
2018-01-20T21:45:21.251Z,4.10
2018-01-20T21:47:47.193Z,4.00
2018-01-20T21:50:13.127Z,3.90
2018-01-20T21:52:39.977Z,3.70
2018-01-20T21:55:06.663Z,3.70
2018-01-20T21:57:32.652Z,3.70
2018-01-20T21:59:58.611Z,3.60
2018-01-20T22:02:24.608Z,3.70
2018-01-20T22:04:50.603Z,3.70
2018-01-20T22:07:16.591Z,3.70
2018-01-20T22:09:42.667Z,3.70
2018-01-20T22:12:08.600Z,3.70
2018-01-20T22:14:34.603Z,3.60
2018-01-20T22:17:00.584Z,3.60
2018-01-20T22:19:26.529Z,3.50
2018-01-20T22:21:53.384Z,3.50
2018-01-20T22:24:19.326Z,3.50
2018-01-20T22:26:45.438Z,3.50
2018-01-20T22:29:11.442Z,3.40
2018-01-20T22:31:38.148Z,3.50
2018-01-20T22:34:04.139Z,3.40
2018-01-20T22:36:30.080Z,3.50
2018-01-20T22:38:56.038Z,3.50
2018-01-20T22:41:22.770Z,3.40
2018-01-20T22:43:48.738Z,3.40
2018-01-20T22:46:14.839Z,3.30
2018-01-20T22:48:41.530Z,3.10
2018-01-20T22:51:07.464Z,3.10
2018-01-20T22:53:33.438Z,3.20
2018-01-20T22:55:59.380Z,3.10
2018-01-20T22:58:25.343Z,3.10
2018-01-20T23:00:51.292Z,3.00
2018-01-20T23:03:17.416Z,3.00
2018-01-20T23:05:44.113Z,2.90
2018-01-20T23:08:10.046Z,2.90
2018-01-20T23:10:36.059Z,2.90
2018-01-20T23:13:01.988Z,2.90
2018-01-20T23:15:27.955Z,2.90
2018-01-20T23:17:53.944Z,2.90
2018-01-20T23:20:19.901Z,2.80
2018-01-20T23:22:46.121Z,2.80
2018-01-20T23:25:12.060Z,2.80
2018-01-20T23:27:38.055Z,2.80
2018-01-20T23:30:04.745Z,2.80
2018-01-20T23:32:30.697Z,2.80
2018-01-20T23:34:56.675Z,2.80
2018-01-20T23:37:22.622Z,2.80
2018-01-20T23:39:48.730Z,2.70
2018-01-20T23:42:14.679Z,2.70
2018-01-20T23:44:40.647Z,2.60
2018-01-20T23:47:06.588Z,2.60
2018-01-20T23:49:32.560Z,2.60
2018-01-20T23:51:59.230Z,2.60
2018-01-20T23:54:25.310Z,2.60
2018-01-20T23:56:51.280Z,2.60
2018-01-20T23:59:17.276Z,2.60
